sensor_id;sensor_type;location;lat;lon;timestamp;P1;durP1;ratioP1;P2;durP2;ratioP2
2934;SDS011;2462;51.456;7.248;2023-03-02T00:00:52;7.10;;;6.20;;
2934;SDS011;2462;51.456;7.248;2023-03-02T00:03:19;7.17;;;6.47;;
2934;SDS011;2462;51.456;7.248;2023-03-02T00:05:45;5.87;;;5.27;;
2934;SDS011;2462;51.456;7.248;2023-03-02T00:08:12;7.53;;;5.33;;
2934;SDS011;2462;51.456;7.248;2023-03-02T00:10:38;7.07;;;6.00;;
2934;SDS011;2462;51.456;7.248;2023-03-02T00:13:04;7.60;;;5.77;;
2934;SDS011;2462;51.456;7.248;2023-03-02T00:15:30;8.40;;;6.53;;
2934;SDS011;2462;51.456;7.248;2023-03-02T00:17:56;7.43;;;5.83;;
2934;SDS011;2462;51.456;7.248;2023-03-02T00:20:22;7.57;;;5.83;;
2934;SDS011;2462;51.456;7.248;2023-03-02T00:22:48;5.80;;;5.10;;
2934;SDS011;2462;51.456;7.248;2023-03-02T00:25:15;7.40;;;5.73;;
2934;SDS011;2462;51.456;7.248;2023-03-02T00:27:41;6.27;;;4.97;;
2934;SDS011;2462;51.456;7.248;2023-03-02T00:30:07;5.87;;;4.93;;
2934;SDS011;2462;51.456;7.248;2023-03-02T00:32:34;7.87;;;5.60;;
2934;SDS011;2462;51.456;7.248;2023-03-02T00:35:00;6.87;;;5.77;;
2934;SDS011;2462;51.456;7.248;2023-03-02T00:37:26;5.67;;;5.10;;
2934;SDS011;2462;51.456;7.248;2023-03-02T00:39:52;6.77;;;5.00;;
2934;SDS011;2462;51.456;7.248;2023-03-02T00:42:18;7.33;;;5.63;;
2934;SDS011;2462;51.456;7.248;2023-03-02T00:44:44;6.90;;;5.57;;
2934;SDS011;2462;51.456;7.248;2023-03-02T00:47:10;6.20;;;5.60;;
2934;SDS011;2462;51.456;7.248;2023-03-02T00:49:36;5.80;;;4.63;;
2934;SDS011;2462;51.456;7.248;2023-03-02T00:52:03;6.30;;;5.40;;
2934;SDS011;2462;51.456;7.248;2023-03-02T00:54:29;7.13;;;5.43;;
2934;SDS011;2462;51.456;7.248;2023-03-02T00:56:55;7.10;;;6.13;;
2934;SDS011;2462;51.456;7.248;2023-03-02T00:59:21;6.50;;;5.10;;
2934;SDS011;2462;51.456;7.248;2023-03-02T01:01:55;6.53;;;4.87;;
2934;SDS011;2462;51.456;7.248;2023-03-02T01:04:22;7.00;;;5.60;;
2934;SDS011;2462;51.456;7.248;2023-03-02T01:06:48;7.77;;;6.70;;
2934;SDS011;2462;51.456;7.248;2023-03-02T01:09:14;6.37;;;4.87;;
2934;SDS011;2462;51.456;7.248;2023-03-02T01:11:40;6.13;;;5.53;;
2934;SDS011;2462;51.456;7.248;2023-03-02T01:14:06;7.17;;;5.20;;
2934;SDS011;2462;51.456;7.248;2023-03-02T01:16:32;5.40;;;4.67;;
2934;SDS011;2462;51.456;7.248;2023-03-02T01:18:58;5.60;;;5.10;;
2934;SDS011;2462;51.456;7.248;2023-03-02T01:21:24;5.90;;;5.30;;
2934;SDS011;2462;51.456;7.248;2023-03-02T01:23:50;6.70;;;5.80;;
2934;SDS011;2462;51.456;7.248;2023-03-02T01:26:16;7.63;;;5.63;;
2934;SDS011;2462;51.456;7.248;2023-03-02T01:28:42;7.40;;;5.60;;
2934;SDS011;2462;51.456;7.248;2023-03-02T01:31:08;6.10;;;5.50;;
2934;SDS011;2462;51.456;7.248;2023-03-02T01:33:34;7.20;;;6.07;;
2934;SDS011;2462;51.456;7.248;2023-03-02T01:36:00;5.80;;;5.00;;
2934;SDS011;2462;51.456;7.248;2023-03-02T01:38:26;6.50;;;5.60;;
2934;SDS011;2462;51.456;7.248;2023-03-02T01:40:52;8.03;;;5.67;;
2934;SDS011;2462;51.456;7.248;2023-03-02T01:43:18;6.70;;;5.10;;
2934;SDS011;2462;51.456;7.248;2023-03-02T01:45:52;6.77;;;5.60;;
2934;SDS011;2462;51.456;7.248;2023-03-02T01:48:20;6.67;;;5.37;;
2934;SDS011;2462;51.456;7.248;2023-03-02T01:50:47;6.77;;;5.30;;
2934;SDS011;2462;51.456;7.248;2023-03-02T01:53:13;5.70;;;5.13;;
2934;SDS011;2462;51.456;7.248;2023-03-02T01:55:40;5.90;;;5.30;;
2934;SDS011;2462;51.456;7.248;2023-03-02T01:58:08;7.27;;;5.30;;
2934;SDS011;2462;51.456;7.248;2023-03-02T02:00:37;6.33;;;5.63;;
2934;SDS011;2462;51.456;7.248;2023-03-02T02:03:13;6.60;;;5.33;;
2934;SDS011;2462;51.456;7.248;2023-03-02T02:05:41;6.23;;;5.10;;
2934;SDS011;2462;51.456;7.248;2023-03-02T02:08:08;7.30;;;6.40;;
2934;SDS011;2462;51.456;7.248;2023-03-02T02:10:34;6.70;;;5.93;;
2934;SDS011;2462;51.456;7.248;2023-03-02T02:13:00;6.33;;;5.33;;
2934;SDS011;2462;51.456;7.248;2023-03-02T02:15:26;6.60;;;5.37;;
2934;SDS011;2462;51.456;7.248;2023-03-02T02:17:53;6.33;;;5.70;;
2934;SDS011;2462;51.456;7.248;2023-03-02T02:20:35;7.47;;;5.70;;
2934;SDS011;2462;51.456;7.248;2023-03-02T02:27:53;6.00;;;5.03;;
2934;SDS011;2462;51.456;7.248;2023-03-02T02:30:20;6.70;;;5.73;;
2934;SDS011;2462;51.456;7.248;2023-03-02T02:32:47;10.80;;;5.60;;
2934;SDS011;2462;51.456;7.248;2023-03-02T02:35:15;9.23;;;5.50;;
2934;SDS011;2462;51.456;7.248;2023-03-02T02:37:50;9.60;;;6.03;;
2934;SDS011;2462;51.456;7.248;2023-03-02T02:40:18;7.10;;;5.87;;
2934;SDS011;2462;51.456;7.248;2023-03-02T02:42:46;7.50;;;5.67;;
2934;SDS011;2462;51.456;7.248;2023-03-02T02:45:34;7.50;;;6.20;;
2934;SDS011;2462;51.456;7.248;2023-03-02T02:48:00;8.07;;;5.80;;
2934;SDS011;2462;51.456;7.248;2023-03-02T02:50:30;7.23;;;6.17;;
2934;SDS011;2462;51.456;7.248;2023-03-02T02:53:05;6.40;;;5.27;;
2934;SDS011;2462;51.456;7.248;2023-03-02T02:55:31;6.53;;;5.80;;
2934;SDS011;2462;51.456;7.248;2023-03-02T02:57:58;9.23;;;6.13;;
2934;SDS011;2462;51.456;7.248;2023-03-02T03:00:25;7.40;;;5.80;;
2934;SDS011;2462;51.456;7.248;2023-03-02T03:03:00;6.50;;;5.83;;
2934;SDS011;2462;51.456;7.248;2023-03-02T03:05:28;7.27;;;5.73;;
2934;SDS011;2462;51.456;7.248;2023-03-02T03:08:37;6.33;;;5.50;;
2934;SDS011;2462;51.456;7.248;2023-03-02T03:10:54;7.67;;;5.80;;
2934;SDS011;2462;51.456;7.248;2023-03-02T03:13:20;6.60;;;5.90;;
2934;SDS011;2462;51.456;7.248;2023-03-02T03:15:46;6.67;;;5.80;;
2934;SDS011;2462;51.456;7.248;2023-03-02T03:18:12;7.10;;;5.20;;
2934;SDS011;2462;51.456;7.248;2023-03-02T03:20:38;6.83;;;5.40;;
2934;SDS011;2462;51.456;7.248;2023-03-02T03:23:05;6.13;;;5.53;;
2934;SDS011;2462;51.456;7.248;2023-03-02T03:25:31;6.00;;;5.20;;
2934;SDS011;2462;51.456;7.248;2023-03-02T03:27:58;8.20;;;5.70;;
2934;SDS011;2462;51.456;7.248;2023-03-02T03:30:26;7.00;;;6.17;;
2934;SDS011;2462;51.456;7.248;2023-03-02T03:32:52;6.17;;;5.47;;
2934;SDS011;2462;51.456;7.248;2023-03-02T03:35:18;7.43;;;6.50;;
2934;SDS011;2462;51.456;7.248;2023-03-02T03:37:44;7.17;;;6.20;;
2934;SDS011;2462;51.456;7.248;2023-03-02T03:40:12;6.03;;;5.43;;
2934;SDS011;2462;51.456;7.248;2023-03-02T03:42:39;6.30;;;5.37;;
2934;SDS011;2462;51.456;7.248;2023-03-02T03:45:05;5.97;;;5.33;;
2934;SDS011;2462;51.456;7.248;2023-03-02T03:47:32;7.20;;;5.67;;
2934;SDS011;2462;51.456;7.248;2023-03-02T03:49:58;6.37;;;5.70;;
2934;SDS011;2462;51.456;7.248;2023-03-02T03:52:24;9.53;;;5.87;;
2934;SDS011;2462;51.456;7.248;2023-03-02T03:55:00;6.27;;;5.40;;
2934;SDS011;2462;51.456;7.248;2023-03-02T03:57:26;7.43;;;6.27;;
2934;SDS011;2462;51.456;7.248;2023-03-02T03:59:53;8.27;;;5.83;;
2934;SDS011;2462;51.456;7.248;2023-03-02T04:02:19;6.40;;;5.80;;
2934;SDS011;2462;51.456;7.248;2023-03-02T04:04:45;7.47;;;6.00;;
2934;SDS011;2462;51.456;7.248;2023-03-02T04:07:12;7.93;;;5.97;;
2934;SDS011;2462;51.456;7.248;2023-03-02T04:09:38;6.53;;;5.53;;
2934;SDS011;2462;51.456;7.248;2023-03-02T04:12:04;6.90;;;5.57;;
2934;SDS011;2462;51.456;7.248;2023-03-02T04:14:31;7.93;;;5.53;;
2934;SDS011;2462;51.456;7.248;2023-03-02T04:16:57;5.87;;;5.20;;
2934;SDS011;2462;51.456;7.248;2023-03-02T04:19:23;6.50;;;5.50;;
2934;SDS011;2462;51.456;7.248;2023-03-02T04:21:50;7.00;;;5.67;;
2934;SDS011;2462;51.456;7.248;2023-03-02T04:24:17;7.67;;;5.33;;
2934;SDS011;2462;51.456;7.248;2023-03-02T04:26:44;7.43;;;5.57;;
2934;SDS011;2462;51.456;7.248;2023-03-02T04:29:11;6.63;;;6.03;;
2934;SDS011;2462;51.456;7.248;2023-03-02T04:31:37;6.60;;;5.50;;
2934;SDS011;2462;51.456;7.248;2023-03-02T04:34:04;6.80;;;6.20;;
2934;SDS011;2462;51.456;7.248;2023-03-02T04:36:31;7.33;;;6.43;;
2934;SDS011;2462;51.456;7.248;2023-03-02T04:38:57;6.00;;;5.40;;
2934;SDS011;2462;51.456;7.248;2023-03-02T04:41:23;6.90;;;5.77;;
2934;SDS011;2462;51.456;7.248;2023-03-02T04:43:49;7.57;;;5.20;;
2934;SDS011;2462;51.456;7.248;2023-03-02T04:46:21;7.20;;;6.20;;
2934;SDS011;2462;51.456;7.248;2023-03-02T04:48:48;5.47;;;4.97;;
2934;SDS011;2462;51.456;7.248;2023-03-02T04:51:16;8.47;;;6.00;;
2934;SDS011;2462;51.456;7.248;2023-03-02T04:53:43;10.43;;;5.53;;
2934;SDS011;2462;51.456;7.248;2023-03-02T04:56:09;7.47;;;6.10;;
2934;SDS011;2462;51.456;7.248;2023-03-02T04:58:35;6.87;;;5.90;;
2934;SDS011;2462;51.456;7.248;2023-03-02T05:01:01;6.80;;;5.37;;
2934;SDS011;2462;51.456;7.248;2023-03-02T05:03:27;10.20;;;6.70;;
2934;SDS011;2462;51.456;7.248;2023-03-02T05:05:53;6.90;;;5.60;;
2934;SDS011;2462;51.456;7.248;2023-03-02T05:08:21;7.23;;;6.07;;
2934;SDS011;2462;51.456;7.248;2023-03-02T05:10:48;6.87;;;5.60;;
2934;SDS011;2462;51.456;7.248;2023-03-02T05:13:14;6.53;;;5.30;;
2934;SDS011;2462;51.456;7.248;2023-03-02T05:15:40;7.70;;;5.30;;
2934;SDS011;2462;51.456;7.248;2023-03-02T05:18:07;7.13;;;5.57;;
2934;SDS011;2462;51.456;7.248;2023-03-02T05:20:34;7.87;;;6.33;;
2934;SDS011;2462;51.456;7.248;2023-03-02T05:23:01;5.73;;;5.13;;
2934;SDS011;2462;51.456;7.248;2023-03-02T05:25:28;6.80;;;5.77;;
2934;SDS011;2462;51.456;7.248;2023-03-02T05:27:54;6.20;;;5.20;;
2934;SDS011;2462;51.456;7.248;2023-03-02T05:30:21;6.70;;;5.00;;
2934;SDS011;2462;51.456;7.248;2023-03-02T05:32:48;7.27;;;6.03;;
2934;SDS011;2462;51.456;7.248;2023-03-02T05:35:14;6.13;;;4.90;;
2934;SDS011;2462;51.456;7.248;2023-03-02T05:37:40;10.00;;;6.00;;
2934;SDS011;2462;51.456;7.248;2023-03-02T05:40:09;9.60;;;5.30;;
2934;SDS011;2462;51.456;7.248;2023-03-02T05:42:35;5.97;;;4.97;;
2934;SDS011;2462;51.456;7.248;2023-03-02T05:45:05;7.00;;;5.50;;
2934;SDS011;2462;51.456;7.248;2023-03-02T05:47:31;8.43;;;6.27;;
2934;SDS011;2462;51.456;7.248;2023-03-02T05:49:57;5.93;;;5.33;;
2934;SDS011;2462;51.456;7.248;2023-03-02T05:52:24;6.90;;;5.43;;
2934;SDS011;2462;51.456;7.248;2023-03-02T05:54:50;6.20;;;5.60;;
2934;SDS011;2462;51.456;7.248;2023-03-02T05:57:16;6.50;;;5.77;;
2934;SDS011;2462;51.456;7.248;2023-03-02T05:59:42;7.20;;;5.80;;
2934;SDS011;2462;51.456;7.248;2023-03-02T06:02:10;5.90;;;5.27;;
2934;SDS011;2462;51.456;7.248;2023-03-02T06:04:36;5.80;;;5.17;;
2934;SDS011;2462;51.456;7.248;2023-03-02T06:07:07;6.50;;;5.00;;
2934;SDS011;2462;51.456;7.248;2023-03-02T06:09:33;6.87;;;5.57;;
2934;SDS011;2462;51.456;7.248;2023-03-02T06:11:59;6.30;;;5.53;;
2934;SDS011;2462;51.456;7.248;2023-03-02T06:14:25;7.10;;;5.60;;
2934;SDS011;2462;51.456;7.248;2023-03-02T06:16:50;7.53;;;6.07;;
2934;SDS011;2462;51.456;7.248;2023-03-02T06:19:16;6.90;;;5.77;;
2934;SDS011;2462;51.456;7.248;2023-03-02T06:21:42;9.40;;;6.23;;
2934;SDS011;2462;51.456;7.248;2023-03-02T06:24:08;13.03;;;5.80;;
2934;SDS011;2462;51.456;7.248;2023-03-02T06:26:34;6.87;;;6.17;;
2934;SDS011;2462;51.456;7.248;2023-03-02T06:29:00;7.23;;;5.70;;
2934;SDS011;2462;51.456;7.248;2023-03-02T06:31:27;7.23;;;5.57;;
2934;SDS011;2462;51.456;7.248;2023-03-02T06:33:53;8.33;;;5.77;;
2934;SDS011;2462;51.456;7.248;2023-03-02T06:36:19;6.63;;;5.80;;
2934;SDS011;2462;51.456;7.248;2023-03-02T06:38:45;6.90;;;5.57;;
2934;SDS011;2462;51.456;7.248;2023-03-02T06:41:11;8.17;;;5.57;;
2934;SDS011;2462;51.456;7.248;2023-03-02T06:43:37;6.20;;;5.63;;
2934;SDS011;2462;51.456;7.248;2023-03-02T06:46:03;7.60;;;5.23;;
2934;SDS011;2462;51.456;7.248;2023-03-02T06:48:29;10.00;;;5.97;;
2934;SDS011;2462;51.456;7.248;2023-03-02T06:50:55;7.90;;;5.97;;
2934;SDS011;2462;51.456;7.248;2023-03-02T06:53:21;6.20;;;5.47;;
2934;SDS011;2462;51.456;7.248;2023-03-02T06:55:47;6.07;;;5.47;;
2934;SDS011;2462;51.456;7.248;2023-03-02T06:58:13;7.27;;;5.80;;
2934;SDS011;2462;51.456;7.248;2023-03-02T07:00:39;7.50;;;5.80;;
2934;SDS011;2462;51.456;7.248;2023-03-02T07:03:05;7.13;;;5.87;;
2934;SDS011;2462;51.456;7.248;2023-03-02T07:05:31;5.87;;;5.20;;
2934;SDS011;2462;51.456;7.248;2023-03-02T07:07:58;6.33;;;5.73;;
2934;SDS011;2462;51.456;7.248;2023-03-02T07:10:24;6.00;;;5.13;;
2934;SDS011;2462;51.456;7.248;2023-03-02T07:12:50;10.50;;;5.43;;
2934;SDS011;2462;51.456;7.248;2023-03-02T07:15:17;7.37;;;5.77;;
2934;SDS011;2462;51.456;7.248;2023-03-02T07:17:44;6.97;;;6.27;;
2934;SDS011;2462;51.456;7.248;2023-03-02T07:20:10;9.73;;;6.20;;
2934;SDS011;2462;51.456;7.248;2023-03-02T07:22:37;6.37;;;5.67;;
2934;SDS011;2462;51.456;7.248;2023-03-02T07:25:03;5.90;;;4.70;;
2934;SDS011;2462;51.456;7.248;2023-03-02T07:27:29;7.27;;;5.70;;
2934;SDS011;2462;51.456;7.248;2023-03-02T07:29:55;7.07;;;5.53;;
2934;SDS011;2462;51.456;7.248;2023-03-02T07:32:21;8.10;;;5.57;;
2934;SDS011;2462;51.456;7.248;2023-03-02T07:34:47;7.17;;;5.57;;
2934;SDS011;2462;51.456;7.248;2023-03-02T07:37:13;5.50;;;5.00;;
2934;SDS011;2462;51.456;7.248;2023-03-02T07:39:39;6.97;;;5.80;;
2934;SDS011;2462;51.456;7.248;2023-03-02T07:42:06;6.10;;;5.50;;
2934;SDS011;2462;51.456;7.248;2023-03-02T07:44:35;6.90;;;6.20;;
2934;SDS011;2462;51.456;7.248;2023-03-02T07:47:01;7.80;;;5.40;;
2934;SDS011;2462;51.456;7.248;2023-03-02T07:49:27;5.90;;;4.73;;
2934;SDS011;2462;51.456;7.248;2023-03-02T07:51:53;7.10;;;5.53;;
2934;SDS011;2462;51.456;7.248;2023-03-02T07:54:19;8.32;;;5.55;;
2934;SDS011;2462;51.456;7.248;2023-03-02T07:56:45;13.87;;;6.57;;
2934;SDS011;2462;51.456;7.248;2023-03-02T07:59:11;16.03;;;7.80;;
2934;SDS011;2462;51.456;7.248;2023-03-02T08:01:37;8.43;;;6.73;;
2934;SDS011;2462;51.456;7.248;2023-03-02T08:04:03;8.87;;;6.40;;
2934;SDS011;2462;51.456;7.248;2023-03-02T08:06:29;11.33;;;7.50;;
2934;SDS011;2462;51.456;7.248;2023-03-02T08:08:56;15.13;;;7.30;;
2934;SDS011;2462;51.456;7.248;2023-03-02T08:11:24;9.67;;;6.57;;
2934;SDS011;2462;51.456;7.248;2023-03-02T08:13:50;9.97;;;6.87;;
2934;SDS011;2462;51.456;7.248;2023-03-02T08:16:16;14.53;;;8.57;;
2934;SDS011;2462;51.456;7.248;2023-03-02T08:18:42;13.60;;;7.90;;
2934;SDS011;2462;51.456;7.248;2023-03-02T08:21:18;14.07;;;7.40;;
2934;SDS011;2462;51.456;7.248;2023-03-02T08:23:44;12.83;;;7.23;;
2934;SDS011;2462;51.456;7.248;2023-03-02T08:26:11;19.97;;;7.77;;
2934;SDS011;2462;51.456;7.248;2023-03-02T08:28:37;9.98;;;7.72;;
2934;SDS011;2462;51.456;7.248;2023-03-02T08:31:04;12.37;;;7.70;;
2934;SDS011;2462;51.456;7.248;2023-03-02T08:33:30;11.30;;;7.10;;
2934;SDS011;2462;51.456;7.248;2023-03-02T08:35:57;10.30;;;7.90;;
2934;SDS011;2462;51.456;7.248;2023-03-02T08:38:24;9.43;;;7.20;;
2934;SDS011;2462;51.456;7.248;2023-03-02T08:40:50;9.23;;;8.00;;
2934;SDS011;2462;51.456;7.248;2023-03-02T08:43:17;11.50;;;8.00;;
2934;SDS011;2462;51.456;7.248;2023-03-02T08:45:44;11.00;;;7.20;;
2934;SDS011;2462;51.456;7.248;2023-03-02T08:48:10;12.10;;;7.40;;
2934;SDS011;2462;51.456;7.248;2023-03-02T08:50:36;9.20;;;7.07;;
2934;SDS011;2462;51.456;7.248;2023-03-02T08:53:02;10.00;;;6.90;;
2934;SDS011;2462;51.456;7.248;2023-03-02T08:55:28;13.93;;;8.20;;
2934;SDS011;2462;51.456;7.248;2023-03-02T08:57:54;9.63;;;7.23;;
2934;SDS011;2462;51.456;7.248;2023-03-02T09:00:20;8.73;;;6.50;;
2934;SDS011;2462;51.456;7.248;2023-03-02T09:02:46;10.10;;;7.30;;
2934;SDS011;2462;51.456;7.248;2023-03-02T09:05:12;13.20;;;7.60;;
2934;SDS011;2462;51.456;7.248;2023-03-02T09:07:38;10.50;;;7.23;;
2934;SDS011;2462;51.456;7.248;2023-03-02T09:10:04;14.43;;;7.10;;
2934;SDS011;2462;51.456;7.248;2023-03-02T09:12:30;7.90;;;6.57;;
2934;SDS011;2462;51.456;7.248;2023-03-02T09:14:56;13.60;;;7.82;;
2934;SDS011;2462;51.456;7.248;2023-03-02T09:17:22;11.97;;;6.80;;
2934;SDS011;2462;51.456;7.248;2023-03-02T09:19:48;10.43;;;6.80;;
2934;SDS011;2462;51.456;7.248;2023-03-02T09:22:14;10.97;;;7.07;;
2934;SDS011;2462;51.456;7.248;2023-03-02T09:24:40;10.57;;;7.17;;
2934;SDS011;2462;51.456;7.248;2023-03-02T09:27:06;8.73;;;6.33;;
2934;SDS011;2462;51.456;7.248;2023-03-02T09:29:32;11.83;;;7.40;;
2934;SDS011;2462;51.456;7.248;2023-03-02T09:31:58;9.77;;;7.20;;
2934;SDS011;2462;51.456;7.248;2023-03-02T09:34:24;9.10;;;7.20;;
2934;SDS011;2462;51.456;7.248;2023-03-02T09:36:50;9.07;;;7.00;;
2934;SDS011;2462;51.456;7.248;2023-03-02T09:39:16;11.63;;;7.37;;
2934;SDS011;2462;51.456;7.248;2023-03-02T09:44:28;10.43;;;7.80;;
2934;SDS011;2462;51.456;7.248;2023-03-02T09:47:00;9.50;;;6.70;;
2934;SDS011;2462;51.456;7.248;2023-03-02T09:54:44;10.37;;;6.87;;
2934;SDS011;2462;51.456;7.248;2023-03-02T09:57:16;8.27;;;6.97;;
2934;SDS011;2462;51.456;7.248;2023-03-02T09:59:44;9.13;;;6.10;;
2934;SDS011;2462;51.456;7.248;2023-03-02T10:02:27;8.13;;;6.63;;
2934;SDS011;2462;51.456;7.248;2023-03-02T10:04:57;9.00;;;6.80;;
2934;SDS011;2462;51.456;7.248;2023-03-02T10:07:29;11.60;;;6.23;;
2934;SDS011;2462;51.456;7.248;2023-03-02T10:09:58;8.27;;;6.97;;
2934;SDS011;2462;51.456;7.248;2023-03-02T10:19:58;9.00;;;6.70;;
2934;SDS011;2462;51.456;7.248;2023-03-02T10:22:35;11.27;;;5.83;;
2934;SDS011;2462;51.456;7.248;2023-03-02T10:27:50;8.43;;;5.40;;
2934;SDS011;2462;51.456;7.248;2023-03-02T10:32:49;7.70;;;6.07;;
2934;SDS011;2462;51.456;7.248;2023-03-02T10:35:16;8.43;;;5.78;;
2934;SDS011;2462;51.456;7.248;2023-03-02T10:37:44;6.97;;;4.90;;
2934;SDS011;2462;51.456;7.248;2023-03-02T10:40:15;15.43;;;4.87;;
2934;SDS011;2462;51.456;7.248;2023-03-02T10:42:50;9.40;;;5.47;;
2934;SDS011;2462;51.456;7.248;2023-03-02T10:45:27;6.37;;;5.20;;
2934;SDS011;2462;51.456;7.248;2023-03-02T10:48:03;8.90;;;5.27;;
2934;SDS011;2462;51.456;7.248;2023-03-02T10:50:30;9.98;;;5.50;;
2934;SDS011;2462;51.456;7.248;2023-03-02T10:52:56;8.30;;;6.13;;
2934;SDS011;2462;51.456;7.248;2023-03-02T10:55:22;7.80;;;5.50;;
2934;SDS011;2462;51.456;7.248;2023-03-02T11:00:27;11.13;;;6.57;;
2934;SDS011;2462;51.456;7.248;2023-03-02T11:02:58;9.97;;;6.10;;
2934;SDS011;2462;51.456;7.248;2023-03-02T11:10:19;8.83;;;5.83;;
2934;SDS011;2462;51.456;7.248;2023-03-02T11:12:46;9.70;;;5.53;;
2934;SDS011;2462;51.456;7.248;2023-03-02T11:17:45;9.53;;;5.20;;
2934;SDS011;2462;51.456;7.248;2023-03-02T11:20:15;9.43;;;5.80;;
2934;SDS011;2462;51.456;7.248;2023-03-02T11:22:53;8.20;;;5.10;;
2934;SDS011;2462;51.456;7.248;2023-03-02T11:25:24;10.03;;;6.60;;
2934;SDS011;2462;51.456;7.248;2023-03-02T11:27:54;10.63;;;5.70;;
2934;SDS011;2462;51.456;7.248;2023-03-02T11:30:21;12.43;;;6.13;;
2934;SDS011;2462;51.456;7.248;2023-03-02T11:33:25;15.83;;;5.93;;
2934;SDS011;2462;51.456;7.248;2023-03-02T11:35:49;10.13;;;5.57;;
2934;SDS011;2462;51.456;7.248;2023-03-02T11:38:35;10.43;;;5.70;;
2934;SDS011;2462;51.456;7.248;2023-03-02T11:41:05;10.27;;;5.67;;
2934;SDS011;2462;51.456;7.248;2023-03-02T11:43:37;9.70;;;5.23;;
2934;SDS011;2462;51.456;7.248;2023-03-02T11:46:04;10.33;;;6.00;;
2934;SDS011;2462;51.456;7.248;2023-03-02T11:48:38;6.23;;;5.30;;
2934;SDS011;2462;51.456;7.248;2023-03-02T11:53:38;7.37;;;5.00;;
2934;SDS011;2462;51.456;7.248;2023-03-02T11:56:06;10.13;;;5.10;;
2934;SDS011;2462;51.456;7.248;2023-03-02T11:58:32;8.80;;;5.30;;
2934;SDS011;2462;51.456;7.248;2023-03-02T12:00:58;7.90;;;5.93;;
2934;SDS011;2462;51.456;7.248;2023-03-02T12:05:59;8.77;;;5.63;;
2934;SDS011;2462;51.456;7.248;2023-03-02T12:10:59;9.47;;;5.33;;
2934;SDS011;2462;51.456;7.248;2023-03-02T12:13:26;8.63;;;4.87;;
2934;SDS011;2462;51.456;7.248;2023-03-02T12:15:53;8.20;;;5.60;;
2934;SDS011;2462;51.456;7.248;2023-03-02T12:20:59;6.70;;;4.83;;
2934;SDS011;2462;51.456;7.248;2023-03-02T12:23:25;6.95;;;4.35;;
2934;SDS011;2462;51.456;7.248;2023-03-02T12:26:03;10.97;;;5.83;;
2934;SDS011;2462;51.456;7.248;2023-03-02T12:28:32;7.50;;;4.73;;
2934;SDS011;2462;51.456;7.248;2023-03-02T12:31:06;6.03;;;5.10;;
2934;SDS011;2462;51.456;7.248;2023-03-02T12:33:37;7.83;;;5.60;;
2934;SDS011;2462;51.456;7.248;2023-03-02T12:44:14;7.80;;;5.07;;
2934;SDS011;2462;51.456;7.248;2023-03-02T12:46:43;8.00;;;4.87;;
2934;SDS011;2462;51.456;7.248;2023-03-02T12:49:12;5.23;;;4.63;;
2934;SDS011;2462;51.456;7.248;2023-03-02T12:54:12;5.03;;;4.53;;
2934;SDS011;2462;51.456;7.248;2023-03-02T12:56:39;8.02;;;4.70;;
2934;SDS011;2462;51.456;7.248;2023-03-02T12:59:05;6.83;;;4.67;;
2934;SDS011;2462;51.456;7.248;2023-03-02T13:01:31;6.70;;;4.80;;
2934;SDS011;2462;51.456;7.248;2023-03-02T13:03:57;9.68;;;4.82;;
2934;SDS011;2462;51.456;7.248;2023-03-02T13:06:25;6.23;;;5.33;;
2934;SDS011;2462;51.456;7.248;2023-03-02T13:08:53;8.10;;;5.30;;
2934;SDS011;2462;51.456;7.248;2023-03-02T13:11:26;5.10;;;4.60;;
2934;SDS011;2462;51.456;7.248;2023-03-02T13:13:52;8.20;;;4.80;;
2934;SDS011;2462;51.456;7.248;2023-03-02T13:18:45;5.03;;;4.20;;
2934;SDS011;2462;51.456;7.248;2023-03-02T13:21:13;5.80;;;4.20;;
2934;SDS011;2462;51.456;7.248;2023-03-02T13:23:47;6.03;;;5.00;;
2934;SDS011;2462;51.456;7.248;2023-03-02T13:26:30;6.73;;;4.27;;
2934;SDS011;2462;51.456;7.248;2023-03-02T13:29:00;7.10;;;4.78;;
2934;SDS011;2462;51.456;7.248;2023-03-02T13:31:27;6.23;;;4.47;;
2934;SDS011;2462;51.456;7.248;2023-03-02T13:33:54;5.20;;;4.57;;
2934;SDS011;2462;51.456;7.248;2023-03-02T13:36:28;6.40;;;4.30;;
2934;SDS011;2462;51.456;7.248;2023-03-02T13:38:55;5.40;;;4.50;;
2934;SDS011;2462;51.456;7.248;2023-03-02T13:41:33;5.30;;;4.80;;
2934;SDS011;2462;51.456;7.248;2023-03-02T13:44:10;5.57;;;4.40;;
2934;SDS011;2462;51.456;7.248;2023-03-02T13:46:36;6.10;;;4.67;;
2934;SDS011;2462;51.456;7.248;2023-03-02T13:49:03;4.53;;;4.13;;
2934;SDS011;2462;51.456;7.248;2023-03-02T13:51:30;6.00;;;4.90;;
2934;SDS011;2462;51.456;7.248;2023-03-02T13:53:58;6.03;;;4.63;;
2934;SDS011;2462;51.456;7.248;2023-03-02T13:56:43;4.37;;;3.97;;
2934;SDS011;2462;51.456;7.248;2023-03-02T13:59:12;6.60;;;4.50;;
2934;SDS011;2462;51.456;7.248;2023-03-02T14:01:39;4.77;;;4.27;;
2934;SDS011;2462;51.456;7.248;2023-03-02T14:04:05;5.00;;;4.50;;
2934;SDS011;2462;51.456;7.248;2023-03-02T14:06:34;6.73;;;5.17;;
2934;SDS011;2462;51.456;7.248;2023-03-02T14:09:00;4.97;;;4.37;;
2934;SDS011;2462;51.456;7.248;2023-03-02T14:11:27;5.47;;;4.80;;
2934;SDS011;2462;51.456;7.248;2023-03-02T14:13:55;4.97;;;4.30;;
2934;SDS011;2462;51.456;7.248;2023-03-02T14:16:21;5.60;;;4.90;;
2934;SDS011;2462;51.456;7.248;2023-03-02T14:18:48;4.70;;;4.00;;
2934;SDS011;2462;51.456;7.248;2023-03-02T14:21:20;5.37;;;4.33;;
2934;SDS011;2462;51.456;7.248;2023-03-02T14:23:46;4.50;;;4.00;;
2934;SDS011;2462;51.456;7.248;2023-03-02T14:28:38;4.43;;;4.03;;
2934;SDS011;2462;51.456;7.248;2023-03-02T14:31:04;4.67;;;4.20;;
2934;SDS011;2462;51.456;7.248;2023-03-02T14:33:30;4.50;;;3.70;;
2934;SDS011;2462;51.456;7.248;2023-03-02T14:35:57;5.77;;;4.47;;
2934;SDS011;2462;51.456;7.248;2023-03-02T14:38:24;6.33;;;4.27;;
2934;SDS011;2462;51.456;7.248;2023-03-02T14:40:51;6.30;;;4.57;;
2934;SDS011;2462;51.456;7.248;2023-03-02T14:43:17;4.97;;;4.43;;
2934;SDS011;2462;51.456;7.248;2023-03-02T14:45:45;4.83;;;4.27;;
2934;SDS011;2462;51.456;7.248;2023-03-02T14:48:11;5.10;;;4.60;;
2934;SDS011;2462;51.456;7.248;2023-03-02T14:50:37;5.30;;;4.17;;
2934;SDS011;2462;51.456;7.248;2023-03-02T14:53:05;7.00;;;4.80;;
2934;SDS011;2462;51.456;7.248;2023-03-02T14:55:33;4.60;;;3.80;;
2934;SDS011;2462;51.456;7.248;2023-03-02T14:58:05;6.03;;;4.00;;
2934;SDS011;2462;51.456;7.248;2023-03-02T15:00:35;5.13;;;4.30;;
2934;SDS011;2462;51.456;7.248;2023-03-02T15:03:01;6.03;;;4.37;;
2934;SDS011;2462;51.456;7.248;2023-03-02T15:05:27;4.90;;;4.23;;
2934;SDS011;2462;51.456;7.248;2023-03-02T15:07:53;5.50;;;4.13;;
2934;SDS011;2462;51.456;7.248;2023-03-02T15:10:21;5.27;;;4.00;;
2934;SDS011;2462;51.456;7.248;2023-03-02T15:12:47;5.70;;;4.90;;
2934;SDS011;2462;51.456;7.248;2023-03-02T15:15:13;4.90;;;4.47;;
2934;SDS011;2462;51.456;7.248;2023-03-02T15:17:39;5.57;;;4.40;;
2934;SDS011;2462;51.456;7.248;2023-03-02T15:20:05;4.70;;;3.87;;
2934;SDS011;2462;51.456;7.248;2023-03-02T15:22:32;5.60;;;4.40;;
2934;SDS011;2462;51.456;7.248;2023-03-02T15:24:58;5.63;;;4.37;;
2934;SDS011;2462;51.456;7.248;2023-03-02T15:27:24;5.40;;;4.30;;
2934;SDS011;2462;51.456;7.248;2023-03-02T15:29:50;6.37;;;4.90;;
2934;SDS011;2462;51.456;7.248;2023-03-02T15:32:16;4.30;;;3.63;;
2934;SDS011;2462;51.456;7.248;2023-03-02T15:34:42;4.90;;;4.20;;
2934;SDS011;2462;51.456;7.248;2023-03-02T15:37:09;7.23;;;4.67;;
2934;SDS011;2462;51.456;7.248;2023-03-02T15:39:35;4.90;;;4.30;;
2934;SDS011;2462;51.456;7.248;2023-03-02T15:42:01;5.37;;;4.60;;
2934;SDS011;2462;51.456;7.248;2023-03-02T15:44:27;4.17;;;3.77;;
2934;SDS011;2462;51.456;7.248;2023-03-02T15:46:54;5.63;;;4.67;;
2934;SDS011;2462;51.456;7.248;2023-03-02T15:49:20;5.50;;;4.40;;
2934;SDS011;2462;51.456;7.248;2023-03-02T15:51:53;4.90;;;4.50;;
2934;SDS011;2462;51.456;7.248;2023-03-02T15:54:21;4.50;;;4.10;;
2934;SDS011;2462;51.456;7.248;2023-03-02T15:56:48;7.30;;;5.07;;
2934;SDS011;2462;51.456;7.248;2023-03-02T15:59:17;4.47;;;3.80;;
2934;SDS011;2462;51.456;7.248;2023-03-02T16:01:43;4.60;;;4.17;;
2934;SDS011;2462;51.456;7.248;2023-03-02T16:04:09;5.03;;;4.50;;
2934;SDS011;2462;51.456;7.248;2023-03-02T16:06:35;5.53;;;5.03;;
2934;SDS011;2462;51.456;7.248;2023-03-02T16:09:01;4.87;;;4.13;;
2934;SDS011;2462;51.456;7.248;2023-03-02T16:11:27;6.70;;;5.10;;
2934;SDS011;2462;51.456;7.248;2023-03-02T16:13:53;8.63;;;4.90;;
2934;SDS011;2462;51.456;7.248;2023-03-02T16:16:19;5.63;;;5.00;;